»·PEaware :: N3452E KTUS-KLAS

N3452E :: KTUS-KLAS

FLIGHT INFORMATION

Flight Status: Arrived
Operator: Privately registered:
United States
More flights under this callsign
Pilot: John C. (27555)
Aircraft: BOMBARDIER BD-100 CHALLENGER 300
(CL30)
More flights by this aircraft type
Origin: KTUS Tucson Intl
United States
Destination: KLAS McCarran Intl
United States
More flights between these airports :: More routes between these airports
Route: WLDKT3 BBALL PXR J11 DRK KADDY3
File this flight plan on PilotEdge
Remarks:
Altitude:
(Current/Filed)
32,000ft
Speed:
(Current/Filed)
430kts
Departed: 07-Nov-20 09:33 PM
Arrived: 07-Nov-20 10:41 PM
Distance/Time
Traveled:
317nm/1:08
Distance/Time
To Go:
Arrived

Flight Plot

Page will automatically refresh every two minutes.

Flight plan parsing failed; only flown route is shown


Map Options




Map Legend


Flown Route
Filed Route
Departure Airport
Arrival Airport
Navaid (VOR, NDB)
Fix

Horizontal Profiles

Position Reports

Time Latitude Longitude Heading Altitude Ground
Speed
07-Nov-20 21:15 32.115847 -110.956279 90 2650ft 0kts
07-Nov-20 21:16 32.115847 -110.956279 90 2650ft 0kts
07-Nov-20 21:17 32.115847 -110.956279 90 2650ft 0kts
07-Nov-20 21:18 32.115847 -110.956279 90 2650ft 0kts
07-Nov-20 21:19 32.115847 -110.956279 90 2650ft 0kts
07-Nov-20 21:20 32.115847 -110.956279 90 2650ft 0kts
07-Nov-20 21:21 32.115847 -110.956279 90 2650ft 0kts
07-Nov-20 21:22 32.115847 -110.956279 90 2650ft 0kts
07-Nov-20 21:23 32.115847 -110.956279 90 2650ft 0kts
07-Nov-20 21:24 32.115847 -110.956279 90 2650ft 0kts
07-Nov-20 21:25 32.115847 -110.956279 90 2650ft 0kts
07-Nov-20 21:26 32.115847 -110.956279 90 2650ft 0kts
07-Nov-20 21:27 32.117167 -110.955800 329 2650ft 10kts
07-Nov-20 21:28 32.120511 -110.952603 45 2650ft 22kts
07-Nov-20 21:29 32.124034 -110.948428 44 2649ft 16kts
07-Nov-20 21:30 32.123178 -110.945147 135 2650ft 9kts
07-Nov-20 21:31 32.119815 -110.941210 135 2649ft 33kts
07-Nov-20 21:32 32.110485 -110.930282 133 2650ft 55kts
07-Nov-20 21:33 32.103067 -110.921799 207 2650ft 6kts
07-Nov-20 21:34 32.102920 -110.921929 222 2650ft 0kts
07-Nov-20 21:35 32.102328 -110.923234 312 2649ft 8kts
07-Nov-20 21:36 32.125017 -110.947904 313 3179ft 204kts
07-Nov-20 21:37 32.170305 -110.995328 311 5814ft 229kts
07-Nov-20 21:38 32.220854 -111.042832 312 9599ft 236kts
07-Nov-20 21:39 32.274961 -111.088775 313 13017ft 257kts
07-Nov-20 21:40 32.344399 -111.134501 323 16236ft 312kts
07-Nov-20 21:41 32.431859 -111.184537 325 16972ft 387kts
07-Nov-20 21:42 32.532212 -111.241428 326 16976ft 405kts
07-Nov-20 21:43 32.632741 -111.298522 324 20229ft 390kts
07-Nov-20 21:44 32.724427 -111.350763 320 24800ft 353kts
07-Nov-20 21:45 32.814093 -111.402237 320 27418ft 362kts
07-Nov-20 21:46 32.905924 -111.454924 319 29741ft 371kts
07-Nov-20 21:47 32.992966 -111.515037 302 31819ft 346kts
07-Nov-20 21:48 33.069964 -111.595668 302 31829ft 390kts
07-Nov-20 21:49 33.155615 -111.683903 302 31820ft 422kts
07-Nov-20 21:50 33.247123 -111.778120 303 31814ft 445kts
07-Nov-20 21:51 33.341879 -111.875826 303 31804ft 448kts
07-Nov-20 21:52 33.440812 -111.968217 317 31788ft 473kts
07-Nov-20 21:53 33.567229 -112.022995 326 31799ft 487kts
07-Nov-20 21:54 33.695942 -112.074480 326 31801ft 488kts
07-Nov-20 21:55 33.825259 -112.126106 326 31809ft 493kts
07-Nov-20 21:56 33.955475 -112.178195 326 31801ft 496kts
07-Nov-20 21:57 34.086516 -112.230781 326 31801ft 496kts
07-Nov-20 21:58 34.216767 -112.283196 326 31783ft 492kts
07-Nov-20 21:59 34.345129 -112.335009 326 31783ft 483kts
07-Nov-20 22:00 34.470613 -112.385856 326 31786ft 474kts
07-Nov-20 22:01 34.594768 -112.436350 326 31788ft 470kts
07-Nov-20 22:02 34.698363 -112.511583 297 31802ft 401kts
07-Nov-20 22:03 34.754762 -112.620745 286 31802ft 371kts
07-Nov-20 22:04 34.800125 -112.731193 283 31824ft 360kts
07-Nov-20 22:05 34.842852 -112.840044 283 31822ft 352kts
07-Nov-20 22:06 34.884258 -112.946744 283 31819ft 346kts
07-Nov-20 22:07 34.925191 -113.052930 286 30717ft 360kts
07-Nov-20 22:08 34.969775 -113.168774 288 27554ft 392kts
07-Nov-20 22:09 35.013427 -113.282202 288 27392ft 348kts
07-Nov-20 22:10 35.054838 -113.390646 289 25729ft 352kts
07-Nov-20 22:11 35.095602 -113.497580 289 24598ft 343kts
07-Nov-20 22:12 35.135376 -113.602279 289 23529ft 334kts
07-Nov-20 22:13 35.174495 -113.705685 289 22509ft 341kts
07-Nov-20 22:14 35.215936 -113.815563 290 21536ft 364kts
07-Nov-20 22:15 35.262458 -113.927254 310 20519ft 385kts
07-Nov-20 22:16 35.356571 -113.988009 327 19744ft 368kts
07-Nov-20 22:17 35.447358 -114.040425 328 18458ft 355kts
07-Nov-20 22:18 35.535386 -114.090899 329 17116ft 343kts
07-Nov-20 22:19 35.614180 -114.148322 301 15661ft 303kts
07-Nov-20 22:20 35.659666 -114.229554 299 14383ft 284kts
07-Nov-20 22:21 35.703760 -114.311257 299 13122ft 284kts
07-Nov-20 22:22 35.749185 -114.389777 312 12033ft 274kts
07-Nov-20 22:23 35.799433 -114.449538 313 11797ft 237kts
07-Nov-20 22:24 35.861872 -114.480252 337 10119ft 245kts
07-Nov-20 22:25 35.925568 -114.506836 337 8642ft 234kts
07-Nov-20 22:26 35.984966 -114.534654 335 8014ft 221kts
07-Nov-20 22:27 36.042792 -114.561962 335 8023ft 229kts
07-Nov-20 22:28 36.094517 -114.600640 283 8036ft 211kts
07-Nov-20 22:29 36.109389 -114.671553 281 8020ft 217kts
07-Nov-20 22:30 36.124538 -114.744641 281 8021ft 217kts
07-Nov-20 22:31 36.139813 -114.817099 281 8016ft 216kts
07-Nov-20 22:32 36.155379 -114.889082 281 8008ft 215kts
07-Nov-20 22:33 36.171352 -114.960955 281 7145ft 208kts
07-Nov-20 22:34 36.185161 -115.020052 281 5537ft 159kts
07-Nov-20 22:35 36.193287 -115.070160 244 4299ft 132kts
07-Nov-20 22:36 36.172344 -115.102789 238 4232ft 120kts
07-Nov-20 22:37 36.147894 -115.129221 202 3299ft 122kts
07-Nov-20 22:38 36.117302 -115.146347 204 2706ft 120kts
07-Nov-20 22:39 36.089815 -115.162082 204 2188ft 70kts
07-Nov-20 22:40 36.083716 -115.166738 228 2188ft 0kts
07-Nov-20 22:41 36.082858 -115.167827 236 2188ft 21kts

Navigation Log

Ident Type
Flight plan parsing failed, navigation log unavailable